createdAt,value
2023-03-07T00:00:20.871Z,70.13
2023-03-07T00:03:12.107Z,70.17
2023-03-07T00:05:41.039Z,70.26
2023-03-07T00:08:09.736Z,70.39
2023-03-07T00:10:37.985Z,70.45
2023-03-07T00:13:06.213Z,70.34
2023-03-07T00:15:34.077Z,70.36
2023-03-07T00:18:02.007Z,70.38
2023-03-07T00:20:29.925Z,70.37
2023-03-07T00:22:57.856Z,70.45
2023-03-07T00:25:25.769Z,70.37
2023-03-07T00:27:53.653Z,70.45
2023-03-07T00:30:21.603Z,70.55
2023-03-07T00:32:49.505Z,70.71
2023-03-07T00:35:17.376Z,70.72
2023-03-07T00:37:45.225Z,70.84
2023-03-07T00:40:13.381Z,71.04
2023-03-07T00:42:41.273Z,71.01
2023-03-07T00:45:09.452Z,70.99
2023-03-07T00:47:37.344Z,71.04
2023-03-07T00:50:05.919Z,71.23
2023-03-07T00:52:33.839Z,71.21
2023-03-07T00:55:02.092Z,71.29
2023-03-07T00:57:30.203Z,71.40
2023-03-07T00:59:58.120Z,71.45
2023-03-07T01:02:26.329Z,71.43
2023-03-07T01:04:54.330Z,71.48
2023-03-07T01:07:22.190Z,71.47
2023-03-07T01:09:51.538Z,71.32
2023-03-07T01:12:19.764Z,71.56
2023-03-07T01:14:51.071Z,71.45
2023-03-07T01:17:19.004Z,71.56
2023-03-07T01:19:46.938Z,71.59
2023-03-07T01:22:15.067Z,71.57
2023-03-07T01:24:43.253Z,71.61
2023-03-07T01:27:11.452Z,71.73
2023-03-07T01:29:39.378Z,71.79
2023-03-07T01:32:07.692Z,71.93
2023-03-07T01:34:36.692Z,71.92
2023-03-07T01:37:04.574Z,71.93
2023-03-07T01:39:32.864Z,72.08
2023-03-07T01:42:07.466Z,72.09
2023-03-07T01:45:07.194Z,72.08
2023-03-07T01:47:44.800Z,72.24
2023-03-07T01:50:16.820Z,72.35
2023-03-07T01:52:53.583Z,72.30
2023-03-07T01:55:25.624Z,72.40
2023-03-07T01:57:58.931Z,72.22
2023-03-07T02:00:30.041Z,72.19
2023-03-07T02:03:17.646Z,72.37
2023-03-07T02:05:51.177Z,72.38
2023-03-07T02:08:22.228Z,72.40
2023-03-07T02:10:50.237Z,72.48
2023-03-07T02:13:18.139Z,72.55
2023-03-07T02:15:47.209Z,72.54
2023-03-07T02:18:20.963Z,72.68
2023-03-07T02:21:12.373Z,72.90
2023-03-07T02:23:43.284Z,72.83
2023-03-07T02:26:21.085Z,72.90
2023-03-07T02:28:49.194Z,73.06
2023-03-07T02:31:17.452Z,72.96
2023-03-07T02:33:45.559Z,73.01
2023-03-07T02:36:17.355Z,73.05
2023-03-07T02:38:56.984Z,73.19
2023-03-07T02:41:30.156Z,73.16
2023-03-07T02:43:58.836Z,73.22
2023-03-07T02:46:26.831Z,73.01
2023-03-07T02:48:55.077Z,73.03
2023-03-07T02:51:23.399Z,73.21
2023-03-07T02:53:51.789Z,73.28
2023-03-07T02:56:19.708Z,73.20
2023-03-07T02:58:47.795Z,73.27
2023-03-07T03:01:15.774Z,73.12
2023-03-07T03:03:44.734Z,73.11
2023-03-07T03:06:14.862Z,73.17
2023-03-07T03:08:42.781Z,73.18
2023-03-07T03:11:11.019Z,73.15
2023-03-07T03:13:39.217Z,73.18
2023-03-07T03:16:07.938Z,73.22
2023-03-07T03:18:35.881Z,73.28
2023-03-07T03:21:08.408Z,73.26
2023-03-07T03:23:36.516Z,73.36
2023-03-07T03:26:07.896Z,73.49
2023-03-07T03:28:36.997Z,73.33
2023-03-07T03:31:08.607Z,73.47
2023-03-07T03:33:37.968Z,73.46
2023-03-07T03:36:12.262Z,73.51
2023-03-07T03:38:40.649Z,73.42
2023-03-07T03:41:16.140Z,73.52
2023-03-07T03:43:44.858Z,73.48
2023-03-07T03:46:13.309Z,73.63
2023-03-07T03:48:41.305Z,73.73
2023-03-07T03:51:12.079Z,73.67
2023-03-07T03:53:40.818Z,73.73
2023-03-07T03:56:14.458Z,73.68
2023-03-07T03:58:42.855Z,73.57
2023-03-07T04:01:12.483Z,73.56
2023-03-07T04:03:43.513Z,73.68
2023-03-07T04:06:23.539Z,73.64
2023-03-07T04:08:53.093Z,73.52
2023-03-07T04:11:22.825Z,73.58
2023-03-07T04:13:51.246Z,73.49
2023-03-07T04:16:20.219Z,73.54
2023-03-07T04:18:50.305Z,73.53
2023-03-07T04:21:19.662Z,73.49
2023-03-07T04:23:50.440Z,73.47
2023-03-07T04:26:18.637Z,73.50
2023-03-07T04:28:46.581Z,73.52
2023-03-07T04:31:24.555Z,73.50
2023-03-07T04:33:54.500Z,73.42
2023-03-07T04:36:24.044Z,73.57
2023-03-07T04:38:52.805Z,73.41
2023-03-07T04:41:23.688Z,73.41
2023-03-07T04:43:55.958Z,73.43
2023-03-07T04:46:25.964Z,73.39
2023-03-07T04:48:54.494Z,73.42
2023-03-07T04:51:23.489Z,73.46
2023-03-07T04:53:51.849Z,73.37
2023-03-07T04:56:20.034Z,73.33
2023-03-07T04:58:48.500Z,73.56
2023-03-07T05:01:18.686Z,73.58
2023-03-07T05:03:47.365Z,73.53
2023-03-07T05:06:17.215Z,73.56
2023-03-07T05:08:49.714Z,73.46
2023-03-07T05:11:17.786Z,73.58
2023-03-07T05:13:45.908Z,73.54
2023-03-07T05:16:17.834Z,73.57
2023-03-07T05:18:46.110Z,73.65
2023-03-07T05:21:14.396Z,73.89
2023-03-07T05:23:42.335Z,73.65
2023-03-07T05:26:12.006Z,73.82
2023-03-07T05:28:40.033Z,73.86
2023-03-07T05:31:08.020Z,73.85
2023-03-07T05:33:36.217Z,73.83
2023-03-07T05:36:04.588Z,73.88
2023-03-07T05:38:34.870Z,73.99
2023-03-07T05:41:03.185Z,74.05
2023-03-07T05:43:31.103Z,73.94
2023-03-07T05:45:58.994Z,74.16
2023-03-07T05:48:27.494Z,74.21
2023-03-07T05:50:59.603Z,74.04
2023-03-07T05:53:27.818Z,74.11
2023-03-07T05:55:56.448Z,74.37
2023-03-07T05:58:24.695Z,74.44
2023-03-07T06:00:52.612Z,74.47
2023-03-07T06:03:21.003Z,74.57
2023-03-07T06:05:50.320Z,74.60
2023-03-07T06:08:18.905Z,75.46
2023-03-07T06:10:52.243Z,75.52
2023-03-07T06:13:23.847Z,75.60
2023-03-07T06:15:53.336Z,75.17
2023-03-07T06:18:23.587Z,75.01
2023-03-07T06:20:56.874Z,74.76
2023-03-07T06:23:26.225Z,74.83
2023-03-07T06:25:54.198Z,74.83
2023-03-07T06:28:22.954Z,74.56
2023-03-07T06:30:51.483Z,74.37
2023-03-07T06:33:19.822Z,74.41
2023-03-07T06:35:48.239Z,74.33
2023-03-07T06:38:17.545Z,74.26
2023-03-07T06:40:45.975Z,74.48
2023-03-07T06:43:14.281Z,74.53
2023-03-07T06:45:42.209Z,74.51
2023-03-07T06:48:10.824Z,74.32
2023-03-07T06:50:38.913Z,74.44
2023-03-07T06:53:06.760Z,74.20
2023-03-07T06:55:34.730Z,74.15
2023-03-07T06:58:03.432Z,73.90
2023-03-07T07:00:31.681Z,73.84
2023-03-07T07:02:59.906Z,73.72
2023-03-07T07:05:28.421Z,73.79
2023-03-07T07:07:56.325Z,74.18
2023-03-07T07:10:24.468Z,74.10
2023-03-07T07:12:56.662Z,74.25
2023-03-07T07:15:26.782Z,74.44
2023-03-07T07:17:54.688Z,74.32
2023-03-07T07:20:23.731Z,73.55
2023-03-07T07:22:51.709Z,72.80
2023-03-07T07:25:20.721Z,72.54
2023-03-07T07:27:48.716Z,72.14
2023-03-07T07:30:16.978Z,71.92
2023-03-07T07:32:45.323Z,71.78
2023-03-07T07:35:13.462Z,71.56
2023-03-07T07:37:41.467Z,71.87
2023-03-07T07:40:10.701Z,71.73
2023-03-07T07:42:38.891Z,71.58
2023-03-07T07:45:16.803Z,71.26
2023-03-07T07:47:44.887Z,71.14
2023-03-07T07:50:14.240Z,71.23
2023-03-07T07:52:42.975Z,71.13
2023-03-07T07:55:11.192Z,71.30
2023-03-07T07:57:39.122Z,71.28
2023-03-07T08:00:09.071Z,71.05
2023-03-07T08:02:40.240Z,71.10
2023-03-07T08:05:12.645Z,70.74
2023-03-07T08:07:40.617Z,70.81
2023-03-07T08:10:09.342Z,70.76
2023-03-07T08:12:37.594Z,70.29
2023-03-07T08:15:06.059Z,70.48
2023-03-07T08:17:34.002Z,70.20
2023-03-07T08:20:08.147Z,70.08
2023-03-07T08:22:39.313Z,69.97
2023-03-07T08:25:08.163Z,70.05
2023-03-07T08:27:36.026Z,70.06
2023-03-07T08:30:04.526Z,70.01
2023-03-07T08:32:32.503Z,70.01
2023-03-07T08:35:00.545Z,69.59
2023-03-07T08:37:28.418Z,69.63
2023-03-07T08:39:56.244Z,69.23
2023-03-07T08:42:24.230Z,69.11
2023-03-07T08:44:52.193Z,68.98
2023-03-07T08:47:20.062Z,68.75
2023-03-07T08:49:47.955Z,68.94
2023-03-07T08:52:15.809Z,68.86
2023-03-07T08:54:43.792Z,68.90
2023-03-07T08:57:11.786Z,68.66
2023-03-07T08:59:39.652Z,68.56
2023-03-07T09:02:09.476Z,68.54
2023-03-07T09:04:37.879Z,68.49
2023-03-07T09:07:05.837Z,68.49
2023-03-07T09:09:33.772Z,68.60
2023-03-07T09:12:01.612Z,68.49
2023-03-07T09:14:29.534Z,68.22
2023-03-07T09:16:57.414Z,68.06
2023-03-07T09:19:28.273Z,68.15
2023-03-07T09:21:56.155Z,67.78
2023-03-07T09:24:24.222Z,67.74
2023-03-07T09:26:53.017Z,67.66
2023-03-07T09:29:20.946Z,67.23
2023-03-07T09:31:48.894Z,67.48
2023-03-07T09:34:16.918Z,67.26
2023-03-07T09:36:44.999Z,67.15
2023-03-07T09:39:16.713Z,67.04
2023-03-07T09:41:57.559Z,67.03
2023-03-07T09:44:47.067Z,66.90
2023-03-07T09:47:47.995Z,66.77
2023-03-07T09:50:59.304Z,66.79
2023-03-07T09:53:50.625Z,66.66
2023-03-07T09:56:30.081Z,66.64
2023-03-07T09:59:22.470Z,66.66
2023-03-07T10:02:01.230Z,66.64
2023-03-07T10:04:42.821Z,66.45
2023-03-07T10:07:14.982Z,66.40
2023-03-07T10:09:44.943Z,66.06
2023-03-07T10:12:43.951Z,65.94
2023-03-07T10:15:35.494Z,65.92
2023-03-07T10:18:15.795Z,65.66
2023-03-07T10:21:25.643Z,65.58
2023-03-07T10:24:26.184Z,65.55
2023-03-07T10:27:07.819Z,65.20
2023-03-07T10:29:48.243Z,65.43
2023-03-07T10:32:40.375Z,65.19
2023-03-07T10:35:11.192Z,64.96
2023-03-07T10:38:03.261Z,65.14
2023-03-07T10:40:44.250Z,65.01
2023-03-07T10:43:31.878Z,64.82
2023-03-07T10:46:27.867Z,64.47
2023-03-07T10:49:11.923Z,64.50
2023-03-07T10:52:04.132Z,64.33
2023-03-07T10:54:37.392Z,64.29
2023-03-07T10:57:17.214Z,64.32
2023-03-07T10:59:48.505Z,64.23
2023-03-07T11:02:28.667Z,64.19
2023-03-07T11:04:58.053Z,64.22
2023-03-07T11:07:28.003Z,63.95
2023-03-07T11:09:58.432Z,63.86
2023-03-07T11:12:29.270Z,63.86
2023-03-07T11:15:11.252Z,64.05
2023-03-07T11:17:48.654Z,63.89
2023-03-07T11:20:19.375Z,63.60
2023-03-07T11:22:47.466Z,63.61
2023-03-07T11:25:25.837Z,63.43
2023-03-07T11:27:56.888Z,63.16
2023-03-07T11:31:16.184Z,63.08
2023-03-07T11:34:26.470Z,62.89
2023-03-07T11:37:14.807Z,63.10
2023-03-07T11:40:21.174Z,62.90
2023-03-07T11:43:04.346Z,62.77
2023-03-07T11:45:54.085Z,62.69
2023-03-07T11:48:37.208Z,62.30
2023-03-07T11:51:11.009Z,62.20
2023-03-07T11:53:50.676Z,62.53
2023-03-07T11:56:36.569Z,62.37
2023-03-07T11:59:26.164Z,62.35
2023-03-07T12:01:56.370Z,62.41
2023-03-07T12:04:52.838Z,62.45
2023-03-07T12:07:35.944Z,62.21
2023-03-07T12:10:09.595Z,62.46
2023-03-07T12:12:37.366Z,62.50
2023-03-07T12:15:23.374Z,62.26
2023-03-07T12:18:04.274Z,62.09
2023-03-07T12:21:10.738Z,62.30
2023-03-07T12:23:39.228Z,62.15
2023-03-07T12:26:17.027Z,62.11
2023-03-07T12:28:55.964Z,61.94
2023-03-07T12:31:32.384Z,61.70
2023-03-07T12:34:17.357Z,61.61
2023-03-07T12:37:00.950Z,61.59
2023-03-07T12:39:32.289Z,61.52
2023-03-07T12:42:15.426Z,61.53
2023-03-07T12:44:49.543Z,61.49
2023-03-07T12:47:50.506Z,61.32
2023-03-07T12:50:28.917Z,61.05
2023-03-07T12:53:35.398Z,60.88
2023-03-07T12:56:33.895Z,60.88
2023-03-07T12:59:14.886Z,60.90
2023-03-07T13:01:47.459Z,60.96
2023-03-07T13:04:26.290Z,61.10
2023-03-07T13:07:00.090Z,61.04
2023-03-07T13:09:28.552Z,60.84
2023-03-07T13:12:08.848Z,60.90
2023-03-07T13:14:51.480Z,60.88
2023-03-07T13:17:42.742Z,60.87
2023-03-07T13:20:17.647Z,60.93
2023-03-07T13:22:45.519Z,60.96
2023-03-07T13:25:19.490Z,60.50
2023-03-07T13:27:51.685Z,60.42
2023-03-07T13:30:23.855Z,60.45
2023-03-07T13:32:51.820Z,60.39
2023-03-07T13:35:29.236Z,60.46
2023-03-07T13:38:15.638Z,60.35
2023-03-07T13:40:43.549Z,60.12
2023-03-07T13:43:25.633Z,60.15
2023-03-07T13:46:26.258Z,60.19
2023-03-07T13:48:54.321Z,60.15
2023-03-07T13:51:22.596Z,60.20
2023-03-07T13:54:00.489Z,60.05
2023-03-07T13:56:35.039Z,59.99
2023-03-07T13:59:14.948Z,59.90
2023-03-07T14:01:48.107Z,59.97
2023-03-07T14:04:33.147Z,59.77
2023-03-07T14:07:13.005Z,59.65
2023-03-07T14:09:44.879Z,59.73
2023-03-07T14:12:34.386Z,59.74
2023-03-07T14:15:23.378Z,59.77
2023-03-07T14:18:20.206Z,59.75
2023-03-07T14:20:53.857Z,59.54
2023-03-07T14:23:43.891Z,59.48
2023-03-07T14:26:25.048Z,59.28
2023-03-07T14:29:12.689Z,59.33
2023-03-07T14:31:43.018Z,59.43
2023-03-07T14:34:28.654Z,59.44
2023-03-07T14:36:58.586Z,59.15
2023-03-07T14:39:51.546Z,59.38
2023-03-07T14:42:36.539Z,59.23
2023-03-07T14:45:33.858Z,59.24
2023-03-07T14:48:10.942Z,59.17
2023-03-07T14:50:44.104Z,59.49
2023-03-07T14:53:19.217Z,59.38
2023-03-07T14:55:50.050Z,59.71
2023-03-07T14:58:23.822Z,59.46
2023-03-07T15:01:06.168Z,59.61
2023-03-07T15:03:34.241Z,59.60
2023-03-07T15:06:03.104Z,59.65
2023-03-07T15:08:38.357Z,59.65
2023-03-07T15:11:25.392Z,59.59
2023-03-07T15:14:05.011Z,59.70
2023-03-07T15:16:46.602Z,59.55
2023-03-07T15:19:22.061Z,59.64
2023-03-07T15:21:54.530Z,59.68
2023-03-07T15:24:43.102Z,59.57
2023-03-07T15:27:14.757Z,59.63
2023-03-07T15:29:47.564Z,59.57
2023-03-07T15:32:37.057Z,59.60
2023-03-07T15:35:08.074Z,59.50
2023-03-07T15:37:52.313Z,59.64
2023-03-07T15:40:20.123Z,59.63
2023-03-07T15:42:49.327Z,59.73
2023-03-07T15:46:01.778Z,59.69
2023-03-07T15:48:43.604Z,59.64
2023-03-07T15:51:16.880Z,59.68
2023-03-07T15:53:53.437Z,59.84
2023-03-07T15:56:30.681Z,59.85
2023-03-07T15:59:02.666Z,59.78
2023-03-07T16:01:30.707Z,59.75
2023-03-07T16:04:04.380Z,59.88
2023-03-07T16:06:32.243Z,60.13
2023-03-07T16:09:00.180Z,60.02
2023-03-07T16:11:28.236Z,60.06
2023-03-07T16:13:56.263Z,60.18
2023-03-07T16:16:27.125Z,60.24
2023-03-07T16:18:57.714Z,60.23
2023-03-07T16:21:26.437Z,60.35
2023-03-07T16:23:54.525Z,60.44
2023-03-07T16:26:24.636Z,60.39
2023-03-07T16:28:54.498Z,60.51
2023-03-07T16:31:22.746Z,60.54
2023-03-07T16:33:50.662Z,60.67
2023-03-07T16:36:18.766Z,60.65
2023-03-07T16:38:46.927Z,60.80
2023-03-07T16:41:20.641Z,60.79
2023-03-07T16:43:56.069Z,60.91
2023-03-07T16:46:24.648Z,60.88
2023-03-07T16:48:52.586Z,61.03
2023-03-07T16:51:23.705Z,61.01
2023-03-07T16:53:52.295Z,61.09
2023-03-07T16:56:32.456Z,60.97
2023-03-07T16:59:01.233Z,61.16
2023-03-07T17:01:29.264Z,61.08
2023-03-07T17:03:57.380Z,61.14
2023-03-07T17:06:38.526Z,61.22
2023-03-07T17:09:11.840Z,61.42
2023-03-07T17:11:45.373Z,61.32
2023-03-07T17:14:15.240Z,61.37
2023-03-07T17:16:50.240Z,61.38
2023-03-07T17:19:28.116Z,61.47
2023-03-07T17:21:58.690Z,61.44
2023-03-07T17:24:29.169Z,61.50
2023-03-07T17:27:00.559Z,61.44
2023-03-07T17:29:37.500Z,61.44
2023-03-07T17:32:05.690Z,61.48
2023-03-07T17:34:35.708Z,61.51
2023-03-07T17:37:04.838Z,61.51
2023-03-07T17:39:34.418Z,61.57
2023-03-07T17:42:03.366Z,61.71
2023-03-07T17:44:32.613Z,61.70
2023-03-07T17:47:01.010Z,61.67
2023-03-07T17:49:37.201Z,61.67
2023-03-07T17:52:06.548Z,61.89
2023-03-07T17:54:35.029Z,61.87
2023-03-07T17:57:03.506Z,61.85
2023-03-07T17:59:32.872Z,62.03
2023-03-07T18:02:01.179Z,62.07
2023-03-07T18:04:31.338Z,62.20
2023-03-07T18:06:59.834Z,62.21
2023-03-07T18:09:27.735Z,62.09
2023-03-07T18:11:55.770Z,62.07
2023-03-07T18:14:24.194Z,62.04
2023-03-07T18:16:52.474Z,62.06
2023-03-07T18:19:26.699Z,62.28
2023-03-07T18:21:55.535Z,62.28
2023-03-07T18:24:26.477Z,62.28
2023-03-07T18:26:55.844Z,62.16
2023-03-07T18:29:23.940Z,62.01
2023-03-07T18:31:52.780Z,62.08
2023-03-07T18:34:21.438Z,61.99
2023-03-07T18:36:51.790Z,61.87
2023-03-07T18:39:23.823Z,62.08
2023-03-07T18:41:51.910Z,62.02
2023-03-07T18:44:19.868Z,61.92
2023-03-07T18:46:47.962Z,62.24
2023-03-07T18:49:16.275Z,62.14
2023-03-07T18:51:46.081Z,62.08
2023-03-07T18:54:14.219Z,62.07
2023-03-07T18:56:45.409Z,62.17
2023-03-07T18:59:14.554Z,62.19
2023-03-07T19:01:43.022Z,62.28
2023-03-07T19:04:12.389Z,62.35
2023-03-07T19:06:45.157Z,62.42
2023-03-07T19:09:18.972Z,62.39
2023-03-07T19:11:48.096Z,62.43
2023-03-07T19:14:16.277Z,62.51
2023-03-07T19:16:44.728Z,62.57
2023-03-07T19:19:12.736Z,62.56
2023-03-07T19:21:40.752Z,62.72
2023-03-07T19:24:11.373Z,62.86
2023-03-07T19:26:40.940Z,62.80
2023-03-07T19:29:11.154Z,62.84
2023-03-07T19:31:43.732Z,62.91
2023-03-07T19:34:12.144Z,63.04
2023-03-07T19:36:41.670Z,63.13
2023-03-07T19:39:15.010Z,63.62
2023-03-07T19:41:45.422Z,63.36
2023-03-07T19:44:14.355Z,63.11
2023-03-07T19:46:46.232Z,63.32
2023-03-07T19:49:17.387Z,63.19
2023-03-07T19:51:45.329Z,63.13
2023-03-07T19:54:14.427Z,63.24
2023-03-07T19:56:44.455Z,62.96
2023-03-07T19:59:13.133Z,63.05
2023-03-07T20:01:41.538Z,63.12
2023-03-07T20:04:12.320Z,63.05
2023-03-07T20:06:42.367Z,63.11
2023-03-07T20:09:12.877Z,63.12
2023-03-07T20:11:44.663Z,63.24
2023-03-07T20:14:12.827Z,63.18
2023-03-07T20:16:41.113Z,63.12
2023-03-07T20:19:09.707Z,63.22
2023-03-07T20:21:37.763Z,63.19
2023-03-07T20:24:07.115Z,63.19
2023-03-07T20:26:37.801Z,63.16
2023-03-07T20:29:08.557Z,63.15
2023-03-07T20:31:37.065Z,63.40
2023-03-07T20:34:05.705Z,63.20
2023-03-07T20:36:36.094Z,63.24
2023-03-07T20:39:10.149Z,63.26
2023-03-07T20:41:38.017Z,63.13
2023-03-07T20:44:08.160Z,63.35
2023-03-07T20:46:38.353Z,63.41
2023-03-07T20:49:06.458Z,63.31
2023-03-07T20:51:36.907Z,63.23
2023-03-07T20:54:16.628Z,63.29
2023-03-07T20:56:46.918Z,63.48
2023-03-07T20:59:17.952Z,63.40
2023-03-07T21:01:46.630Z,63.31
2023-03-07T21:04:17.650Z,63.82
2023-03-07T21:06:46.896Z,64.12
2023-03-07T21:09:17.301Z,64.86
2023-03-07T21:11:49.029Z,65.06
2023-03-07T21:14:19.368Z,65.49
2023-03-07T21:16:47.359Z,65.73
2023-03-07T21:19:15.496Z,65.83
2023-03-07T21:21:43.494Z,66.22
2023-03-07T21:24:12.437Z,66.45
2023-03-07T21:26:40.453Z,66.49
2023-03-07T21:29:09.143Z,66.95
2023-03-07T21:31:38.751Z,66.97
2023-03-07T21:34:10.425Z,66.91
2023-03-07T21:36:38.580Z,67.08
2023-03-07T21:39:09.780Z,67.51
2023-03-07T21:41:38.064Z,67.40
2023-03-07T21:44:06.153Z,67.34
2023-03-07T21:46:34.279Z,67.54
2023-03-07T21:49:02.749Z,67.46
2023-03-07T21:51:30.684Z,67.46
2023-03-07T21:53:58.904Z,67.48
2023-03-07T21:56:26.847Z,67.53
2023-03-07T21:58:54.740Z,67.61
2023-03-07T22:01:28.275Z,67.74
2023-03-07T22:03:57.674Z,67.84
2023-03-07T22:06:26.858Z,67.97
2023-03-07T22:08:54.825Z,68.16
2023-03-07T22:11:22.994Z,68.06
2023-03-07T22:13:50.909Z,68.21
2023-03-07T22:16:20.615Z,68.11
2023-03-07T22:18:55.846Z,68.43
2023-03-07T22:21:27.706Z,68.43
2023-03-07T22:23:58.021Z,68.51
2023-03-07T22:26:27.783Z,68.58
2023-03-07T22:28:56.008Z,68.64
2023-03-07T22:31:24.807Z,68.58
2023-03-07T22:33:52.732Z,68.79
2023-03-07T22:39:35.992Z,69.04
2023-03-07T22:42:03.895Z,69.16
2023-03-07T22:44:31.862Z,69.14
2023-03-07T22:46:59.858Z,69.23
2023-03-07T22:49:27.783Z,69.38
2023-03-07T22:51:55.996Z,69.39
2023-03-07T22:54:24.050Z,69.48
2023-03-07T22:56:51.951Z,69.60
2023-03-07T22:59:19.849Z,69.69
2023-03-07T23:01:47.789Z,69.67
2023-03-07T23:04:15.640Z,69.73
2023-03-07T23:06:43.512Z,70.14
2023-03-07T23:09:11.470Z,70.28
2023-03-07T23:11:40.591Z,70.07
2023-03-07T23:14:09.548Z,70.42
2023-03-07T23:16:39.294Z,70.32
2023-03-07T23:19:07.160Z,70.47
2023-03-07T23:21:35.121Z,70.67
2023-03-07T23:24:03.924Z,70.58
2023-03-07T23:26:35.161Z,70.74
2023-03-07T23:29:05.403Z,70.95
2023-03-07T23:31:36.527Z,70.98
2023-03-07T23:34:08.769Z,71.07
2023-03-07T23:36:36.678Z,70.90
2023-03-07T23:39:04.616Z,71.22
2023-03-07T23:41:32.471Z,71.55
2023-03-07T23:44:01.043Z,71.63
2023-03-07T23:46:29.720Z,71.65
2023-03-07T23:48:58.484Z,71.67
2023-03-07T23:51:27.238Z,71.90
2023-03-07T23:53:55.431Z,71.68
2023-03-07T23:56:23.437Z,71.83
2023-03-07T23:58:52.167Z,71.72
